Time;durP1;ratioP1;P1;durP2;ratioP2;P2;SDS_P1;SDS_P2;PMS_P1;PMS_P2;Temp;Humidity;BMP_temperature;BMP_pressure;BME280_temperature;BME280_humidity;BME280_pressure;Samples;Min_cycle;Max_cycle;Signal;HPM_P1;HPM_P2
2021/06/02 00:00:28;;;;;;;11.43;4.62;;;;;;;10.15;91.22;99586.75;1689827;82;21167;-80
2021/06/02 00:02:59;;;;;;;8.03;4.95;;;;;;;10.15;91.32;99585.38;1686753;83;21711;-78
2021/06/02 00:05:30;;;;;;;9.25;4.40;;;;;;;10.17;91.50;99579.94;1702129;83;21168;-79
2021/06/02 00:07:59;;;;;;;9.65;4.58;;;;;;;10.18;91.29;99575.30;1702394;83;22090;-80
2021/06/02 00:10:26;;;;;;;;;;;;;;;10.19;91.36;99586.53;1704472;82;21750;-79
2021/06/02 00:12:56;;;;;;;9.05;4.17;;;;;;;10.20;91.09;99581.31;1713324;83;20191;-77
2021/06/02 00:15:24;;;;;;;13.03;4.92;;;;;;;10.20;91.11;99588.98;1667134;83;21237;-78
2021/06/02 00:17:53;;;;;;;9.50;4.25;;;;;;;10.20;91.25;99585.42;1675495;84;21276;-77
2021/06/02 00:20:21;;;;;;;11.88;4.70;;;;;;;10.19;90.97;99590.06;1701944;82;21140;-77
2021/06/02 00:22:49;;;;;;;10.15;4.55;;;;;;;10.24;90.66;99590.67;1697443;82;21169;-77
2021/06/02 00:25:19;;;;;;;14.68;4.67;;;;;;;10.24;90.66;99590.67;1689293;82;21535;-77
2021/06/02 00:27:47;;;;;;;10.23;4.90;;;;;;;10.24;90.79;99584.37;1660947;85;21175;-76
2021/06/02 00:30:18;;;;;;;14.75;4.30;;;;;;;10.25;90.41;99590.93;1682270;83;21133;-78
2021/06/02 00:32:46;;;;;;;7.90;4.53;;;;;;;10.27;90.58;99596.95;1677456;84;21192;-78
2021/06/02 00:35:16;;;;;;;9.50;4.08;;;;;;;10.28;90.47;99597.25;1683330;82;21264;-78
2021/06/02 00:37:45;;;;;;;9.35;4.30;;;;;;;10.29;90.50;99605.75;1669579;84;21190;-79
2021/06/02 00:40:26;;;;;;;8.88;3.85;;;;;;;10.29;90.66;99606.28;1663273;82;21184;-79
2021/06/02 00:42:54;;;;;;;10.50;4.03;;;;;;;10.30;90.54;99613.38;1656446;86;21602;-79
2021/06/02 00:45:22;;;;;;;9.63;4.00;;;;;;;10.30;90.71;99612.84;1687357;82;21291;-79
2021/06/02 00:47:52;;;;;;;9.03;4.25;;;;;;;10.31;90.58;99610.41;1639331;86;21178;-79
2021/06/02 00:50:19;;;;;;;12.13;3.97;;;;;;;10.32;90.72;99600.30;1629679;83;21148;-78
2021/06/02 00:52:47;;;;;;;9.33;3.75;;;;;;;10.33;90.60;99601.39;1656058;83;21355;-79
2021/06/02 00:55:16;;;;;;;11.95;4.65;;;;;;;10.34;90.42;99611.25;1690764;82;21192;-79
2021/06/02 00:57:47;;;;;;;9.20;3.62;;;;;;;10.34;90.40;99613.98;1673625;83;21315;-79
2021/06/02 01:00:17;;;;;;;10.03;4.42;;;;;;;10.35;90.45;99600.58;1667350;85;21306;-79
2021/06/02 01:02:48;;;;;;;9.08;3.92;;;;;;;10.36;90.61;99604.97;1689946;82;21186;-81
2021/06/02 01:05:20;;;;;;;13.45;4.40;;;;;;;10.36;90.37;99610.44;1718401;82;21161;-78
2021/06/02 01:07:51;;;;;;;10.50;4.03;;;;;;;10.36;90.41;99599.50;1644814;85;21200;-78
2021/06/02 01:10:22;;;;;;;9.10;4.60;;;;;;;10.35;90.28;99596.47;1672890;85;21586;-79
2021/06/02 01:12:51;;;;;;;12.70;4.22;;;;;;;10.36;90.37;99594.03;1677705;83;21609;-78
2021/06/02 01:15:22;;;;;;;8.93;3.52;;;;;;;10.37;90.45;99598.42;1684348;82;21202;-79
2021/06/02 01:17:50;;;;;;;10.13;4.25;;;;;;;10.38;90.44;99600.05;1693567;82;21155;-78
2021/06/02 01:20:19;;;;;;;12.00;3.77;;;;;;;10.40;90.45;99601.98;1683481;84;21141;-80
2021/06/02 01:22:47;;;;;;;10.53;4.50;;;;;;;10.42;90.38;99601.20;1684159;82;21302;-79
2021/06/02 01:25:19;;;;;;;13.13;4.05;;;;;;;10.42;90.03;99598.46;1687521;84;21182;-78
2021/06/02 01:27:47;;;;;;;9.60;4.33;;;;;;;10.43;90.23;99594.62;1697029;82;21128;-75
2021/06/02 01:30:19;;;;;;;8.38;4.10;;;;;;;10.43;90.10;99600.09;1691482;84;21506;-79
2021/06/02 01:33:40;;;;;;;8.55;3.90;;;;;;;10.42;89.90;99597.09;1715152;82;21125;-76
2021/06/02 01:36:13;;;;;;;7.72;3.62;;;;;;;10.42;89.98;99599.83;1688379;84;21295;-78
2021/06/02 01:39:12;;;;;;;12.23;3.72;;;;;;;10.42;89.89;99599.83;1675187;84;21161;-72
2021/06/02 01:42:06;;;;;;;8.30;4.20;;;;;;;10.43;90.23;99600.09;1669453;83;21194;-73
2021/06/02 01:45:11;;;;;;;11.18;3.90;;;;;;;10.45;90.30;99602.58;1699027;83;21192;-74
2021/06/02 01:48:26;;;;;;;9.83;4.20;;;;;;;10.44;90.42;99600.38;1633846;86;21259;-77
2021/06/02 01:51:05;;;;;;;7.30;4.10;;;;;;;10.45;90.44;99593.80;1682061;83;21363;-73
2021/06/02 01:53:47;;;;;;;11.15;4.20;;;;;;;10.47;90.17;99595.76;1686106;85;21129;-77
2021/06/02 01:57:01;;;;;;;11.08;4.17;;;;;;;10.48;90.41;99594.65;1688665;83;21288;-74
2021/06/02 01:59:38;;;;;;;10.88;4.05;;;;;;;10.48;90.18;99597.92;1685759;83;21265;-73
2021/06/02 02:02:33;;;;;;;9.90;4.00;;;;;;;10.48;90.09;99597.39;1662326;86;21379;-75
2021/06/02 02:05:32;;;;;;;9.65;4.05;;;;;;;10.47;90.17;99597.13;1676119;83;21217;-74
2021/06/02 02:08:44;;;;;;;12.37;4.20;;;;;;;10.47;90.32;99597.13;1687413;85;21156;-74
2021/06/02 02:11:40;;;;;;;10.93;4.03;;;;;;;10.48;90.33;99596.56;1699102;82;21175;-80
2021/06/02 02:14:36;;;;;;;9.55;4.10;;;;;;;10.47;90.32;99595.76;1682823;84;21183;-81
2021/06/02 02:17:34;;;;;;;10.40;4.28;;;;;;;10.49;90.52;99586.73;1666781;83;21175;-77
2021/06/02 02:20:35;;;;;;;9.95;3.52;;;;;;;10.50;90.47;99588.36;1684575;85;21208;-74
2021/06/02 02:23:22;;;;;;;9.78;3.83;;;;;;;10.50;90.05;99580.16;1688303;83;21210;-75
2021/06/02 02:26:01;;;;;;;11.10;3.95;;;;;;;10.53;90.00;99581.00;1697819;83;21272;-74
2021/06/02 02:28:50;;;;;;;10.10;3.75;;;;;;;10.54;90.09;99573.63;1695279;83;21669;-80
2021/06/02 02:31:44;;;;;;;9.55;4.00;;;;;;;10.55;89.91;99572.55;1711925;82;21565;-79
2021/06/02 02:34:34;;;;;;;5.55;3.33;;;;;;;10.54;89.89;99573.09;1709335;83;21137;-79
2021/06/02 02:37:08;;;;;;;10.05;3.60;;;;;;;10.54;89.82;99573.09;1665709;83;21202;-73
2021/06/02 02:39:43;;;;;;;8.20;3.35;;;;;;;10.55;89.60;99571.98;1684504;85;21206;-76
2021/06/02 02:42:43;;;;;;;10.55;3.72;;;;;;;10.58;89.63;99580.20;1683556;83;21198;-76
2021/06/02 02:45:31;;;;;;;9.25;3.27;;;;;;;10.58;89.62;99571.99;1681345;84;21152;-77
2021/06/02 02:48:26;;;;;;;8.40;3.52;;;;;;;10.58;89.64;99575.55;1615083;85;21283;-79
2021/06/02 02:51:05;;;;;;;7.10;3.60;;;;;;;10.58;89.65;99572.82;1673590;85;21274;-80
2021/06/02 02:54:00;;;;;;;10.18;3.20;;;;;;;10.60;89.68;99573.95;1700250;83;21257;-79
2021/06/02 02:56:43;;;;;;;12.10;3.33;;;;;;;10.59;89.42;99575.85;1692301;83;21160;-78
2021/06/02 02:59:27;;;;;;;9.98;3.55;;;;;;;10.59;89.59;99564.91;1686170;83;21200;-79
2021/06/02 03:02:05;;;;;;;10.68;3.12;;;;;;;10.61;89.88;99561.89;1684801;85;21145;-80
2021/06/02 03:04:55;;;;;;;7.40;3.10;;;;;;;10.64;89.58;99560.00;1712869;82;21261;-80
2021/06/02 03:07:23;;;;;;;11.33;3.55;;;;;;;10.65;89.58;99556.98;1703958;84;21164;-79
2021/06/02 03:10:10;;;;;;;8.93;3.20;;;;;;;10.67;89.59;99557.56;1671184;83;21469;-79
2021/06/02 03:13:18;;;;;;;8.38;3.10;;;;;;;10.68;89.42;99561.93;1721474;83;21174;-76
2021/06/02 03:15:49;;;;;;;6.95;3.12;;;;;;;10.68;89.10;99561.09;1709922;82;21172;-74
2021/06/02 03:18:37;;;;;;;6.50;2.98;;;;;;;10.68;89.11;99567.41;1700591;84;21196;-74
2021/06/02 03:21:15;;;;;;;7.75;3.33;;;;;;;10.70;89.04;99564.42;1682655;83;21596;-75
2021/06/02 03:24:15;;;;;;;8.30;3.70;;;;;;;10.70;89.00;99560.31;1683917;84;21628;-75
2021/06/02 03:27:00;;;;;;;7.28;3.10;;;;;;;10.71;89.26;99555.93;1691677;84;21180;-79
2021/06/02 03:29:57;;;;;;;9.40;3.37;;;;;;;10.72;89.18;99569.08;1696955;83;21617;-74
2021/06/02 03:33:03;;;;;;;9.23;3.37;;;;;;;10.75;89.11;99564.45;1670219;86;21608;-78
2021/06/02 03:35:36;;;;;;;8.13;3.25;;;;;;;10.75;89.30;99566.61;1675194;83;21191;-78
2021/06/02 03:38:21;;;;;;;11.68;5.90;;;;;;;10.76;89.47;99566.07;1681570;85;21167;-75
2021/06/02 03:41:25;;;;;;;9.23;3.80;;;;;;;10.75;89.52;99562.50;1682264;83;21607;-79
2021/06/02 03:43:58;;;;;;;7.15;2.90;;;;;;;10.76;89.52;99557.32;1693028;84;21156;-75
2021/06/02 03:46:57;;;;;;;7.55;3.22;;;;;;;10.76;89.85;99565.53;1692172;83;21146;-75
2021/06/02 03:49:43;;;;;;;10.18;3.20;;;;;;;10.74;89.77;99562.25;1683991;84;21189;-79
2021/06/02 03:52:44;;;;;;;10.30;2.77;;;;;;;10.73;89.51;99560.59;1690462;83;21204;-73
2021/06/02 03:55:30;;;;;;;6.90;2.70;;;;;;;10.74;89.59;99558.14;1677073;83;21448;-74
2021/06/02 03:58:02;;;;;;;8.58;3.20;;;;;;;10.75;89.45;99557.03;1645993;84;21165;-79
2021/06/02 04:00:37;;;;;;;7.50;3.60;;;;;;;10.77;89.50;99554.05;1681269;83;21620;-73
2021/06/02 04:03:17;;;;;;;11.22;3.27;;;;;;;10.77;89.37;99547.20;1670585;85;21188;-76
2021/06/02 04:06:10;;;;;;;9.15;3.25;;;;;;;10.79;89.38;99551.32;1680226;83;21133;-75
2021/06/02 04:08:58;;;;;;;7.35;2.80;;;;;;;10.80;89.15;99542.57;1684514;83;21313;-76
2021/06/02 04:11:53;;;;;;;9.27;2.87;;;;;;;10.82;89.30;99546.69;1674863;83;21192;-77
2021/06/02 04:14:34;;;;;;;7.75;3.10;;;;;;;10.83;89.16;99548.31;1668755;85;21398;-77
2021/06/02 04:23:23;;;;;;;8.48;3.33;;;;;;;10.90;89.55;99548.09;1829671;77;22171;-79
2021/06/02 04:25:51;;;;;;;9.60;3.50;;;;;;;10.88;89.59;99550.81;1781465;79;21602;-77
2021/06/02 04:28:19;;;;;;;7.33;3.10;;;;;;;10.89;89.52;99553.81;1771737;80;22253;-76
2021/06/02 04:30:49;;;;;;;8.87;3.33;;;;;;;10.88;89.35;99551.61;1780636;80;21164;-75
2021/06/02 04:33:17;;;;;;;9.05;2.77;;;;;;;10.90;89.34;99553.56;1781809;80;21340;-78
2021/06/02 04:35:50;;;;;;;9.38;3.30;;;;;;;10.92;89.26;99558.22;1739390;80;21187;-77
2021/06/02 04:38:19;;;;;;;7.72;3.85;;;;;;;10.93;89.05;99550.84;1774166;80;21188;-78
2021/06/02 04:40:48;;;;;;;9.28;3.45;;;;;;;10.97;89.20;99565.63;1754705;80;21630;-77
2021/06/02 04:43:16;;;;;;;8.50;3.47;;;;;;;10.98;89.05;99556.33;1779055;80;22024;-77
2021/06/02 04:45:58;;;;;;;11.70;3.35;;;;;;;11.02;89.07;99553.32;1776582;80;21254;-77
2021/06/02 04:48:26;;;;;;;11.05;3.40;;;;;;;11.04;88.97;99559.34;1757961;81;21163;-76
2021/06/02 04:52:04;;;;;;;8.90;3.20;;;;;;;11.05;88.59;99561.83;1779604;80;21239;-77
2021/06/02 04:55:15;;;;;;;9.63;3.27;;;;;;;11.08;88.73;99555.00;1771061;80;21144;-76
2021/06/02 04:58:35;;;;;;;6.92;3.33;;;;;;;11.10;88.60;99557.75;1757843;81;21180;-77
2021/06/02 05:01:31;;;;;;;8.08;3.12;;;;;;;11.13;88.79;99563.23;1771716;80;21160;-76
2021/06/02 05:04:45;;;;;;;8.00;3.30;;;;;;;11.17;88.73;99558.85;1782789;80;21215;-76
2021/06/02 05:08:10;;;;;;;8.23;4.33;;;;;;;11.19;88.81;99560.22;1762726;80;21148;-75
2021/06/02 05:11:03;;;;;;;7.15;3.40;;;;;;;11.22;88.67;99562.44;1766349;80;21125;-74
2021/06/02 05:14:05;;;;;;;7.95;2.87;;;;;;;11.25;88.31;99563.27;1764858;80;21656;-75
2021/06/02 05:16:55;;;;;;;7.85;3.10;;;;;;;11.28;88.09;99564.65;1760984;80;21616;-75
2021/06/02 05:20:00;;;;;;;6.62;2.80;;;;;;;11.31;88.18;99555.86;1690376;82;21493;-76
2021/06/02 05:23:01;;;;;;;6.30;3.05;;;;;;;11.35;88.22;99563.84;1698903;83;21299;-76
2021/06/02 05:26:24;;;;;;;10.03;3.20;;;;;;;11.39;87.90;99568.50;1719115;81;21188;-77
2021/06/02 05:29:37;;;;;;;7.53;2.77;;;;;;;11.44;87.97;99567.14;1686696;84;21637;-78
2021/06/02 05:32:39;;;;;;;10.58;3.50;;;;;;;11.49;87.69;99571.26;1734049;81;21275;-78
2021/06/02 05:36:02;;;;;;;8.45;3.00;;;;;;;11.56;87.83;99570.19;1691842;82;21274;-80
2021/06/02 05:39:24;;;;;;;10.50;3.60;;;;;;;11.59;87.55;99566.87;1722917;81;21605;-79
2021/06/02 05:48:50;;;;;;;10.43;3.60;;;;;;;11.71;87.23;99568.33;1812244;77;25357;-81
2021/06/02 05:52:00;;;;;;;8.98;3.80;;;;;;;11.70;87.35;99571.33;1754316;80;21163;-79
2021/06/02 05:54:55;;;;;;;7.95;3.30;;;;;;;11.73;87.14;99565.30;1750429;80;21136;-80
2021/06/02 05:58:07;;;;;;;8.10;3.30;;;;;;;11.75;86.97;99558.99;1740147;80;21138;-75
2021/06/02 06:01:12;;;;;;;11.12;3.70;;;;;;;11.78;87.03;99554.34;1761784;80;21674;-77
2021/06/02 06:04:31;;;;;;;7.15;3.45;;;;;;;11.82;86.80;99563.11;1734890;80;21616;-74
2021/06/02 06:07:40;;;;;;;8.75;3.40;;;;;;;11.85;86.68;99560.38;1742889;80;21171;-75
2021/06/02 06:10:36;;;;;;;8.45;3.70;;;;;;;11.89;86.80;99572.45;1752305;80;21638;-79
2021/06/02 06:13:56;;;;;;;10.40;3.50;;;;;;;11.89;86.23;99569.14;1733925;82;21159;-76
2021/06/02 06:16:43;;;;;;;8.85;3.27;;;;;;;11.89;86.28;99567.77;1743114;80;21718;-79
2021/06/02 06:19:27;;;;;;;7.28;3.12;;;;;;;11.92;86.20;99559.55;1732968;80;21144;-75
2021/06/02 06:22:24;;;;;;;11.78;2.77;;;;;;;11.94;86.37;99563.66;1745853;81;21144;-78
2021/06/02 06:24:56;;;;;;;9.28;3.25;;;;;;;11.98;86.11;99565.31;1750916;80;21104;-80
2021/06/02 06:27:48;;;;;;;6.47;2.98;;;;;;;12.02;85.86;99566.40;1742284;81;21157;-77
2021/06/02 06:30:29;;;;;;;9.13;3.70;;;;;;;12.07;86.33;99569.97;1727872;80;21258;-79
2021/06/02 06:32:57;;;;;;;8.73;3.52;;;;;;;12.10;86.61;99570.80;1721284;82;21192;-75
2021/06/02 06:35:26;;;;;;;8.08;3.58;;;;;;;12.15;86.43;99571.34;1747633;80;21148;-80
2021/06/02 06:37:56;;;;;;;8.95;3.42;;;;;;;12.16;86.12;99577.66;1728218;83;21640;-80
2021/06/02 06:40:28;;;;;;;10.70;3.60;;;;;;;12.16;85.83;99573.53;1712481;82;21162;-79
2021/06/02 06:42:57;;;;;;;7.72;3.77;;;;;;;12.15;86.19;99580.11;1740601;82;21301;-79
2021/06/02 06:45:32;;;;;;;7.87;3.52;;;;;;;12.14;86.45;99584.80;1741307;80;21143;-78
2021/06/02 06:48:17;;;;;;;7.12;3.55;;;;;;;12.15;86.60;99585.05;1756840;81;21318;-79
2021/06/02 06:50:45;;;;;;;10.03;3.37;;;;;;;12.18;86.58;99590.00;1752445;80;21590;-78
2021/06/02 06:53:15;;;;;;;11.35;3.90;;;;;;;12.21;86.59;99577.65;1740698;80;21601;-77
2021/06/02 06:55:45;;;;;;;11.83;3.83;;;;;;;12.23;86.83;99577.65;1744855;80;21147;-76
2021/06/02 06:58:13;;;;;;;9.25;3.90;;;;;;;12.26;86.95;99578.48;1750704;81;21180;-78
2021/06/02 07:00:41;;;;;;;11.00;3.42;;;;;;;12.32;86.79;99584.21;1757492;81;21144;-79
2021/06/02 07:03:09;;;;;;;8.08;3.83;;;;;;;12.39;86.19;99582.58;1736165;80;21148;-78
2021/06/02 07:05:37;;;;;;;11.30;4.08;;;;;;;12.45;86.12;99584.19;1738049;80;21223;-77
2021/06/02 07:08:06;;;;;;;9.95;3.40;;;;;;;12.52;86.22;99584.76;1706704;82;21130;-75
2021/06/02 07:10:34;;;;;;;6.55;3.42;;;;;;;12.58;86.25;99573.47;1735952;80;21120;-78
2021/06/02 07:13:07;;;;;;;10.70;3.60;;;;;;;12.64;85.86;99583.36;1733137;80;21642;-75
2021/06/02 07:15:37;;;;;;;10.65;3.95;;;;;;;12.69;85.41;99584.72;1755956;81;21164;-78
2021/06/02 07:18:05;;;;;;;9.25;3.70;;;;;;;12.74;85.74;99580.58;1747093;80;21254;-79
2021/06/02 07:20:32;;;;;;;9.50;4.20;;;;;;;12.79;85.38;99588.52;1744502;82;21995;-78
2021/06/02 07:23:00;;;;;;;13.03;4.00;;;;;;;12.81;85.44;99589.06;1737541;80;21565;-76
2021/06/02 07:29:42;;;;;;;11.03;3.90;;;;;;;12.94;85.47;99589.30;1807581;77;22123;-77
2021/06/02 07:32:10;;;;;;;;;;;;;;;12.94;84.99;99583.81;1760897;81;21291;-78
2021/06/02 07:34:38;;;;;;;7.95;3.65;;;;;;;12.99;84.83;99587.91;1745839;81;20241;-79
2021/06/02 07:37:06;;;;;;;8.88;4.05;;;;;;;13.04;84.62;99598.88;1751143;81;21210;-77
2021/06/02 07:39:36;;;;;;;10.23;3.72;;;;;;;13.09;84.12;99602.19;1744483;81;21185;-79
2021/06/02 07:42:05;;;;;;;8.43;3.70;;;;;;;13.11;83.94;99596.68;1734276;81;21223;-78
2021/06/02 07:44:33;;;;;;;7.03;3.80;;;;;;;13.16;84.12;99601.33;1745915;81;21146;-79
2021/06/02 07:47:03;;;;;;;8.98;3.98;;;;;;;13.20;84.33;99602.42;1757787;81;21149;-78
2021/06/02 07:49:31;;;;;;;;;;;;;;;13.25;84.33;99608.73;1746366;81;21236;-77
2021/06/02 07:52:01;;;;;;;8.35;3.67;;;;;;;13.27;83.12;99609.81;1725878;83;20193;-76
2021/06/02 07:54:29;;;;;;;7.67;3.67;;;;;;;13.27;83.62;99616.68;1708073;82;21138;-77
2021/06/02 07:56:57;;;;;;;8.10;3.72;;;;;;;13.28;83.23;99615.01;1701123;84;21308;-79
2021/06/02 07:59:24;;;;;;;8.70;3.90;;;;;;;13.29;83.75;99607.05;1694006;83;21752;-78
2021/06/02 08:04:16;;;;;;;9.93;4.28;;;;;;;13.33;83.40;99616.36;1833190;77;25770;-72
2021/06/02 08:06:45;;;;;;;9.15;3.70;;;;;;;13.27;83.33;99625.75;1787430;78;21646;-74
2021/06/02 08:09:18;;;;;;;10.68;3.77;;;;;;;13.26;83.05;99621.34;1775521;80;21164;-77
2021/06/02 08:11:47;;;;;;;9.98;4.40;;;;;;;13.25;83.08;99614.23;1776655;80;21140;-78
2021/06/02 08:14:17;;;;;;;9.48;3.87;;;;;;;13.25;83.01;99616.97;1778344;80;21511;-78
2021/06/02 08:16:47;;;;;;;7.35;3.90;;;;;;;13.28;83.33;99622.46;1781558;80;21578;-78
2021/06/02 08:19:15;;;;;;;9.85;3.92;;;;;;;13.31;82.80;99617.75;1775400;80;21585;-77
2021/06/02 08:21:44;;;;;;;6.95;3.77;;;;;;;13.31;82.78;99619.13;1770258;80;21266;-74
2021/06/02 08:24:12;;;;;;;10.53;3.92;;;;;;;13.34;83.04;99619.39;1770662;80;21584;-73
2021/06/02 08:26:41;;;;;;;11.35;4.78;;;;;;;13.38;83.16;99617.46;1770186;80;21625;-74
2021/06/02 08:29:09;;;;;;;11.03;4.17;;;;;;;13.41;83.30;99611.41;1768200;80;21364;-77
2021/06/02 08:31:38;;;;;;;11.55;4.25;;;;;;;13.44;83.30;99608.06;1737679;81;21808;-78
2021/06/02 08:34:06;;;;;;;9.65;4.33;;;;;;;13.44;83.04;99606.14;1770816;80;21177;-81
2021/06/02 08:36:34;;;;;;;11.45;4.37;;;;;;;13.49;83.09;99617.11;1777097;80;21227;-72
2021/06/02 08:39:06;;;;;;;7.70;3.75;;;;;;;13.51;83.34;99612.15;1737448;81;21129;-79
2021/06/02 08:41:39;;;;;;;8.33;3.58;;;;;;;13.56;83.05;99612.70;1680366;82;21180;-77
2021/06/02 08:44:07;;;;;;;10.72;4.10;;;;;;;13.62;83.00;99617.05;1704477;83;21573;-78
2021/06/02 08:46:37;;;;;;;10.50;4.35;;;;;;;13.67;83.00;99619.77;1713379;81;21196;-76
2021/06/02 08:49:07;;;;;;;9.23;4.65;;;;;;;13.72;83.24;99620.56;1731659;81;21125;-76
2021/06/02 08:51:38;;;;;;;8.60;4.28;;;;;;;13.78;83.01;99614.48;1719712;82;21172;-76
2021/06/02 08:54:07;;;;;;;9.20;4.33;;;;;;;13.84;82.24;99607.82;1735518;81;21125;-77
2021/06/02 08:56:43;;;;;;;8.85;4.25;;;;;;;13.89;82.34;99609.16;1749541;81;21621;-77
2021/06/02 08:59:12;;;;;;;9.63;4.75;;;;;;;13.93;82.50;99608.88;1700591;83;21251;-77
2021/06/02 09:01:40;;;;;;;12.45;4.70;;;;;;;13.96;81.83;99611.06;1696026;83;21689;-75
2021/06/02 09:04:10;;;;;;;11.08;4.78;;;;;;;14.00;81.52;99616.25;1727934;81;21214;-78
2021/06/02 09:06:45;;;;;;;9.33;4.37;;;;;;;14.01;81.71;99615.16;1738188;82;21121;-77
2021/06/02 09:09:15;;;;;;;10.55;5.05;;;;;;;14.06;81.64;99618.41;1710023;82;21156;-78
2021/06/02 09:11:45;;;;;;;13.10;4.62;;;;;;;14.10;81.34;99623.60;1742264;81;21184;-78
2021/06/02 09:14:28;;;;;;;9.60;5.12;;;;;;;14.14;81.33;99618.61;1727085;81;21790;-78
2021/06/02 09:17:02;;;;;;;11.85;4.83;;;;;;;14.19;81.41;99609.52;1738875;81;21183;-80
2021/06/02 09:19:39;;;;;;;10.80;4.55;;;;;;;14.25;81.56;99617.42;1730232;81;21188;-75
2021/06/02 09:22:12;;;;;;;9.50;4.70;;;;;;;14.31;81.40;99609.98;1735120;81;21569;-76
2021/06/02 09:24:59;;;;;;;9.78;4.30;;;;;;;14.35;80.94;99612.41;1721086;82;21708;-75
2021/06/02 09:27:53;;;;;;;10.65;4.50;;;;;;;14.39;80.81;99616.25;1709254;82;21132;-75
2021/06/02 09:30:31;;;;;;;8.95;3.98;;;;;;;14.41;80.92;99617.61;1711337;81;21459;-74
2021/06/02 09:33:01;;;;;;;9.58;4.37;;;;;;;14.48;80.87;99615.88;1715925;82;21679;-78
2021/06/02 09:35:42;;;;;;;15.40;4.65;;;;;;;14.51;80.22;99618.89;1723821;81;21850;-75
2021/06/02 09:38:24;;;;;;;14.10;4.70;;;;;;;14.57;80.72;99616.91;1743472;80;21626;-74
2021/06/02 09:40:55;;;;;;;8.75;4.35;;;;;;;14.63;80.85;99628.13;1733940;81;21180;-75
2021/06/02 09:43:33;;;;;;;12.40;4.47;;;;;;;14.67;80.42;99618.19;1714793;82;21679;-75
2021/06/02 09:46:03;;;;;;;8.78;4.72;;;;;;;14.71;79.88;99615.11;1734796;81;21672;-77
2021/06/02 09:48:54;;;;;;;11.08;4.58;;;;;;;14.79;80.21;99620.53;1724138;81;21192;-77
2021/06/02 09:51:33;;;;;;;14.87;7.53;;;;;;;14.86;80.35;99607.23;1730786;81;21291;-74
2021/06/02 09:54:02;;;;;;;8.00;4.45;;;;;;;14.95;80.36;99613.77;1715654;82;21152;-80
2021/06/02 09:56:37;;;;;;;8.83;4.28;;;;;;;15.03;79.83;99610.34;1740973;81;21271;-80
2021/06/02 09:59:11;;;;;;;10.43;4.50;;;;;;;15.11;79.79;99609.15;1702082;82;21327;-80
2021/06/02 10:02:00;;;;;;;11.78;4.67;;;;;;;15.18;79.71;99610.16;1711109;82;21171;-83
2021/06/02 10:04:35;;;;;;;8.45;4.00;;;;;;;15.23;79.67;99612.30;1723720;82;21140;-78
2021/06/02 10:07:04;;;;;;;9.43;4.17;;;;;;;15.31;78.90;99610.00;1725132;82;21287;-78
2021/06/02 10:09:35;;;;;;;10.28;4.40;;;;;;;15.38;78.99;99609.91;1718062;82;21191;-76
2021/06/02 10:12:10;;;;;;;10.03;4.15;;;;;;;15.45;79.10;99610.94;1717666;82;21160;-79
2021/06/02 10:14:53;;;;;;;7.80;4.10;;;;;;;15.53;78.32;99614.45;1716140;82;21309;-83
2021/06/02 10:17:32;;;;;;;11.18;3.95;;;;;;;15.61;78.48;99615.17;1709952;82;21693;-78
2021/06/02 10:20:12;;;;;;;9.78;4.30;;;;;;;15.68;77.99;99618.38;1714837;82;21206;-80
2021/06/02 10:22:42;;;;;;;11.75;4.45;;;;;;;15.73;78.32;99616.38;1713813;82;21473;-79
2021/06/02 10:25:10;;;;;;;8.13;3.83;;;;;;;15.80;77.94;99618.20;1713494;82;21651;-75
2021/06/02 10:27:39;;;;;;;8.20;4.08;;;;;;;15.85;77.48;99612.60;1719618;82;21809;-80
2021/06/02 10:30:09;;;;;;;8.45;3.80;;;;;;;15.92;76.52;99610.84;1717056;82;21165;-77
2021/06/02 10:32:37;;;;;;;11.20;4.28;;;;;;;15.98;77.03;99617.11;1711270;82;21132;-81
2021/06/02 10:35:07;;;;;;;9.43;4.00;;;;;;;16.03;76.86;99610.13;1724243;82;21215;-80
2021/06/02 10:37:42;;;;;;;11.22;4.53;;;;;;;16.07;76.53;99606.45;1722429;82;21541;-78
2021/06/02 10:40:16;;;;;;;10.58;4.03;;;;;;;16.12;76.15;99601.41;1711961;82;21287;-79
2021/06/02 10:42:58;;;;;;;6.90;3.70;;;;;;;16.17;76.02;99602.16;1731242;81;21151;-82
2021/06/02 10:45:37;;;;;;;6.35;3.70;;;;;;;16.20;76.13;99607.08;1740676;81;21260;-77
2021/06/02 10:48:07;;;;;;;11.83;4.05;;;;;;;16.24;75.79;99601.79;1716564;82;21476;-77
2021/06/02 10:50:42;;;;;;;7.70;3.92;;;;;;;16.26;76.06;99601.75;1740475;81;21140;-78
2021/06/02 10:53:22;;;;;;;9.73;3.75;;;;;;;16.29;76.00;99601.70;1716288;82;21243;-76
2021/06/02 10:56:02;;;;;;;8.23;3.80;;;;;;;16.32;75.96;99602.45;1735950;81;21179;-79
2021/06/02 10:58:33;;;;;;;11.43;4.20;;;;;;;16.34;75.69;99603.80;1732350;81;21161;-77
2021/06/02 11:01:14;;;;;;;8.25;3.85;;;;;;;16.36;75.85;99596.61;1705875;83;21125;-79
2021/06/02 11:03:43;;;;;;;11.33;3.80;;;;;;;16.40;75.80;99600.39;1731065;82;21622;-78
2021/06/02 11:06:21;;;;;;;7.33;3.58;;;;;;;16.45;74.92;99596.16;1724667;81;21200;-76
2021/06/02 11:08:57;;;;;;;11.40;4.30;;;;;;;16.51;74.61;99602.69;1720650;82;21172;-77
2021/06/02 11:11:29;;;;;;;13.62;4.33;;;;;;;16.58;74.70;99599.55;1699938;82;21692;-79
2021/06/02 11:14:20;;;;;;;15.83;4.08;;;;;;;16.64;74.71;99594.76;1699737;83;21589;-82
2021/06/02 11:16:57;;;;;;;7.95;4.20;;;;;;;16.69;74.75;99595.49;1714506;83;21115;-77
2021/06/02 11:19:42;;;;;;;10.18;3.80;;;;;;;16.75;74.12;99598.95;1715046;83;21176;-81
2021/06/02 11:22:20;;;;;;;12.40;4.10;;;;;;;16.78;73.87;99592.27;1712363;83;21731;-81
2021/06/02 11:24:50;;;;;;;8.88;3.33;;;;;;;16.79;73.46;99593.92;1709651;83;21633;-82
2021/06/02 11:27:25;;;;;;;10.85;3.70;;;;;;;16.81;73.18;99594.43;1704164;83;21208;-76
2021/06/02 11:30:02;;;;;;;7.87;3.40;;;;;;;16.85;72.78;99596.83;1710435;83;21616;-78
2021/06/02 11:32:33;;;;;;;9.25;3.45;;;;;;;16.88;72.86;99598.98;1708327;83;21617;-80
2021/06/02 11:35:05;;;;;;;10.05;3.55;;;;;;;16.92;72.53;99600.03;1704838;83;21157;-79
2021/06/02 11:37:35;;;;;;;10.10;3.33;;;;;;;16.94;72.18;99595.01;1710729;83;21117;-78
2021/06/02 11:40:07;;;;;;;9.45;3.37;;;;;;;16.98;72.19;99594.64;1702583;83;21204;-78
2021/06/02 11:42:43;;;;;;;8.08;3.45;;;;;;;17.00;71.54;99595.73;1722477;82;21161;-79
2021/06/02 11:45:16;;;;;;;10.03;3.35;;;;;;;17.00;71.05;99596.53;1718580;82;21180;-81
2021/06/02 11:47:47;;;;;;;17.65;3.62;;;;;;;17.01;71.10;99603.70;1717327;82;21775;-79
2021/06/02 11:50:17;;;;;;;10.00;3.45;;;;;;;17.02;71.22;99597.06;1712868;83;21667;-78
2021/06/02 11:52:55;;;;;;;9.50;3.58;;;;;;;17.03;70.62;99595.92;1714581;82;21531;-77
2021/06/02 11:55:24;;;;;;;12.73;3.37;;;;;;;17.04;70.74;99600.34;1712660;82;21124;-75
2021/06/02 11:57:52;;;;;;;5.92;2.87;;;;;;;17.06;70.53;99596.70;1713577;82;21233;-77
2021/06/02 12:00:24;;;;;;;6.72;2.67;;;;;;;17.06;69.55;99598.08;1720475;83;21240;-88
2021/06/02 12:02:58;;;;;;;10.58;3.10;;;;;;;17.08;69.62;99593.61;1699539;82;21144;-81
2021/06/02 12:05:37;;;;;;;10.48;3.15;;;;;;;17.10;69.99;99583.88;1716651;82;21188;-77
2021/06/02 12:08:10;;;;;;;8.20;4.17;;;;;;;17.13;68.73;99591.57;1698723;82;21132;-74
2021/06/02 12:10:43;;;;;;;7.85;3.20;;;;;;;17.17;69.30;99591.78;1709902;83;21192;-75
2021/06/02 12:13:23;;;;;;;7.42;2.92;;;;;;;17.22;68.86;99588.09;1707613;83;21550;-74
2021/06/02 12:15:58;;;;;;;8.13;2.67;;;;;;;17.24;68.79;99592.19;1703837;83;21276;-74
2021/06/02 12:18:37;;;;;;;9.40;2.80;;;;;;;17.28;67.90;99586.87;1708333;83;22057;-76
2021/06/02 12:21:23;;;;;;;9.00;2.60;;;;;;;17.32;67.90;99589.27;1700834;83;21185;-76
2021/06/02 12:24:00;;;;;;;8.48;2.65;;;;;;;17.36;67.95;99586.12;1709508;83;21148;-77
2021/06/02 12:26:35;;;;;;;10.88;3.33;;;;;;;17.40;67.55;99589.92;1708832;83;21187;-78
2021/06/02 12:29:10;;;;;;;11.63;2.90;;;;;;;17.44;67.02;99590.93;1703297;83;21704;-77
2021/06/02 12:31:48;;;;;;;7.42;2.75;;;;;;;17.48;66.56;99583.66;1707418;83;21169;-76
2021/06/02 12:34:21;;;;;;;6.92;2.60;;;;;;;17.51;66.84;99581.08;1710239;83;21959;-75
2021/06/02 12:36:54;;;;;;;9.63;2.98;;;;;;;17.55;66.70;99583.53;1712193;83;21180;-77
2021/06/02 12:39:27;;;;;;;5.65;3.02;;;;;;;17.59;66.58;99578.17;1707550;83;21165;-76
2021/06/02 12:41:58;;;;;;;5.83;2.80;;;;;;;17.60;65.94;99580.65;1711201;83;21148;-79
2021/06/02 12:44:31;;;;;;;10.45;3.10;;;;;;;17.61;65.12;99585.03;1714431;83;21848;-79
2021/06/02 12:47:07;;;;;;;17.40;4.03;;;;;;;17.62;65.55;99583.09;1707675;83;21310;-76